Reading, VT (05062)

4:04 PM EDT on June 02, 2015 (GMT -0400)
Lake Rescue | | Change Station
CLOSE
Current Station
Personal Weather Station
Location: Ludlow, VT
Elevation: 1056 ft
Nearby Weather Stations

Elev 1056 ft 43.45 °N, 72.70 °W | Updated 9 seconds ago

Overcast
Overcast
52.5 °F
Feels Like 52.5 °F
N
0.0
Wind Variable Wind from SE
Gusts 1.0 mph

Today
High -- | Low -- °F
--% Chance of Precip.
Yesterday
High -- | Low -- °F
Precip. -- in
5:11 AM 8:25 PM
Full, 100% visible
Pressure 30.18 in
Visibility 10.0 miles
Clouds Overcast 2200 ft
Dew Point 48 °F
Humidity 86%
Rainfall 0.09 in
Snow Depth Not available.
UV 2 out of 12
Pollen 3.70 out of 12
Air Quality Not available.
Flu Activity Sporadic
METAR KVSF 021954Z AUTO VRB03KT 10SM OVC022 12/07 A3017 RMK AO2 SLP219 T01170067 TSNO

More Conditions Fewer Conditions

Pressure 30.18 in
Visibility 10.0 miles
Clouds Overcast 2200 ft
Dew Point 48 °F
Humidity 86%
Rainfall 0.09 in
Snow Depth Not available.
UV 2 out of 12
Pollen 3.70 out of 12
Air Quality Not available.
Flu Activity Sporadic
METAR KVSF 021954Z AUTO VRB03KT 10SM OVC022 12/07 A3017 RMK AO2 SLP219 T01170067 TSNO

More Conditions Fewer Conditions

10-Day Weather Forecast

×

Almanac

Astronomy

Jun. 02, 2015 Rise Set
Actual Time
Civil Twilight
Nautical Twilight
Astronomical Twilight
Moon
Length of Visible Light
Length of Day
Tomorrow will be .
, % of the Moon is Illuminated

Today's Extremes

State Highs State Lows

Community

WunderPhotos

Upload Photos

1,826,017 photos uploaded!

WunderBlogs® & News

Nearby

Air Quality

  Air Quality AQ Index Pollutant
Not available.

Snow Depth

Station Depth Elevation

Earthquake Activity

City Distance Mag. Time & Date
Minimum magnitude displayed is 2.5.

Coastal Water Temperatures

Place Temperature

Stations

Nearby Weather Stations

Station Location Temp. Windchill Dew Point Humidity Wind Precip. Elev Updated Type